createdAt,value
2019-06-26T00:03:00.763Z,11.35
2019-06-26T00:07:55.697Z,10.82
2019-06-26T00:12:50.526Z,10.75
2019-06-26T00:17:45.297Z,11.22
2019-06-26T00:22:40.136Z,11.03
2019-06-26T00:27:34.919Z,12.37
2019-06-26T00:32:29.723Z,11.60
2019-06-26T00:37:24.532Z,11.10
2019-06-26T00:42:19.311Z,12.05
2019-06-26T00:47:14.123Z,12.03
2019-06-26T00:52:08.964Z,11.83
2019-06-26T00:57:03.817Z,11.53
2019-06-26T01:01:58.680Z,11.33
2019-06-26T01:06:53.516Z,11.53
2019-06-26T01:11:48.370Z,12.33
2019-06-26T01:16:43.296Z,11.97
2019-06-26T01:21:38.124Z,11.40
2019-06-26T01:26:33.030Z,11.80
2019-06-26T01:31:28.013Z,12.20
2019-06-26T01:36:22.853Z,11.83
2019-06-26T01:41:17.760Z,12.63
2019-06-26T01:46:12.548Z,12.58
2019-06-26T01:51:07.417Z,13.00
2019-06-26T01:56:02.231Z,12.90
2019-06-26T02:00:57.028Z,13.22
2019-06-26T02:05:51.879Z,13.30
2019-06-26T02:10:46.756Z,13.08
2019-06-26T02:15:41.604Z,12.90
2019-06-26T02:20:36.540Z,13.83
2019-06-26T02:25:31.418Z,13.70
2019-06-26T02:30:26.196Z,13.70
2019-06-26T02:35:20.955Z,13.58
2019-06-26T02:40:16.328Z,14.03
2019-06-26T02:45:11.632Z,12.85
2019-06-26T02:50:06.675Z,14.47
2019-06-26T02:55:01.412Z,14.03
2019-06-26T02:59:56.201Z,15.70
2019-06-26T03:04:51.138Z,16.57
2019-06-26T03:09:45.960Z,15.28
2019-06-26T03:14:40.713Z,14.00
2019-06-26T03:19:35.486Z,13.90
2019-06-26T03:24:30.297Z,16.57
2019-06-26T03:29:25.283Z,14.23
2019-06-26T03:34:20.089Z,15.13
2019-06-26T03:39:14.864Z,14.78
2019-06-26T03:44:09.746Z,16.00
2019-06-26T03:49:04.707Z,15.88
2019-06-26T03:53:59.487Z,16.25
2019-06-26T03:58:54.284Z,16.40
2019-06-26T04:03:49.136Z,15.40
2019-06-26T04:08:43.921Z,14.95
2019-06-26T04:13:38.684Z,15.23
2019-06-26T04:18:33.475Z,14.33
2019-06-26T04:23:28.269Z,17.10
2019-06-26T04:28:23.053Z,16.85
2019-06-26T04:33:17.861Z,17.48
2019-06-26T04:38:12.705Z,19.73
2019-06-26T04:43:07.495Z,20.15
2019-06-26T04:48:02.585Z,20.90
2019-06-26T04:52:57.345Z,22.37
2019-06-26T04:57:52.158Z,22.58
2019-06-26T05:02:46.927Z,24.05
2019-06-26T05:07:41.726Z,23.62
2019-06-26T05:12:36.561Z,23.80
2019-06-26T05:17:31.339Z,23.52
2019-06-26T05:22:26.115Z,24.20
2019-06-26T05:27:21.027Z,24.35
2019-06-26T05:32:15.847Z,24.25
2019-06-26T05:37:10.629Z,24.32
2019-06-26T05:42:06.811Z,24.23
2019-06-26T05:47:01.754Z,24.63
2019-06-26T05:51:56.547Z,24.40
2019-06-26T05:56:51.331Z,24.45
2019-06-26T06:01:46.238Z,24.60
2019-06-26T06:06:42.359Z,23.45
2019-06-26T06:11:37.277Z,24.57
2019-06-26T06:16:46.229Z,23.32
2019-06-26T06:21:28.713Z,23.57
2019-06-26T06:26:25.281Z,22.40
2019-06-26T06:31:20.038Z,23.75
2019-06-26T06:36:14.826Z,22.93
2019-06-26T06:41:09.630Z,22.30
2019-06-26T06:46:04.466Z,21.60
2019-06-26T06:50:59.322Z,20.43
2019-06-26T06:55:54.080Z,19.85
2019-06-26T07:00:48.999Z,19.85
2019-06-26T07:05:43.765Z,19.57
2019-06-26T07:10:38.576Z,19.67
2019-06-26T07:15:33.471Z,16.95
2019-06-26T07:20:28.372Z,16.52
2019-06-26T07:25:23.238Z,17.23
2019-06-26T07:30:18.507Z,15.93
2019-06-26T07:35:13.362Z,16.80
2019-06-26T07:40:08.298Z,16.85
2019-06-26T07:45:03.233Z,15.72
2019-06-26T07:49:58.131Z,16.48
2019-06-26T07:54:52.907Z,15.88
2019-06-26T07:59:47.882Z,15.70
2019-06-26T08:04:42.690Z,15.18
2019-06-26T08:09:37.498Z,15.55
2019-06-26T08:14:32.279Z,15.48
2019-06-26T08:19:27.151Z,15.43
2019-06-26T08:24:21.921Z,15.50
2019-06-26T08:29:16.887Z,16.12
2019-06-26T08:34:11.790Z,15.88
2019-06-26T08:39:07.663Z,15.13
2019-06-26T08:44:02.439Z,15.15
2019-06-26T08:48:57.216Z,14.53
2019-06-26T08:53:51.969Z,14.07
2019-06-26T08:58:46.927Z,14.33
2019-06-26T09:03:42.620Z,14.60
2019-06-26T09:08:37.385Z,13.90
2019-06-26T09:13:32.302Z,12.90
2019-06-26T09:18:35.604Z,13.30
2019-06-26T09:23:23.775Z,14.20
2019-06-26T09:28:18.650Z,12.45
2019-06-26T09:33:13.451Z,12.20
2019-06-26T09:38:08.297Z,11.95
2019-06-26T09:43:03.082Z,11.80
2019-06-26T09:47:57.867Z,11.45
2019-06-26T09:52:52.840Z,12.05
2019-06-26T09:57:47.718Z,11.20
2019-06-26T10:02:42.586Z,11.68
2019-06-26T10:07:37.420Z,11.40
2019-06-26T10:12:32.216Z,12.07
2019-06-26T10:17:27.008Z,11.73
2019-06-26T10:22:21.825Z,11.95
2019-06-26T10:27:16.838Z,11.65
2019-06-26T10:32:11.727Z,10.88
2019-06-26T10:37:06.617Z,11.33
2019-06-26T10:42:01.431Z,11.55
2019-06-26T10:46:56.291Z,10.80
2019-06-26T10:51:51.177Z,9.95
2019-06-26T10:56:45.979Z,9.63
2019-06-26T11:01:40.825Z,9.03
2019-06-26T11:06:37.226Z,10.00
2019-06-26T11:11:32.212Z,10.10
2019-06-26T11:16:27.093Z,10.63
2019-06-26T11:21:22.039Z,10.25
2019-06-26T11:26:16.896Z,11.03
2019-06-26T11:31:11.879Z,11.30
2019-06-26T11:36:06.654Z,11.38
2019-06-26T11:41:02.071Z,10.90
2019-06-26T11:45:56.956Z,10.93
2019-06-26T11:50:51.786Z,9.78
2019-06-26T11:55:46.812Z,9.05
2019-06-26T12:00:41.847Z,10.18
2019-06-26T12:05:36.725Z,9.78
2019-06-26T12:10:31.514Z,10.25
2019-06-26T12:15:26.446Z,10.05
2019-06-26T12:20:21.782Z,10.25
2019-06-26T12:25:16.932Z,10.10
2019-06-26T12:30:11.896Z,9.90
2019-06-26T12:35:06.941Z,10.23
2019-06-26T12:40:01.759Z,11.15
2019-06-26T12:44:56.707Z,10.53
2019-06-26T12:49:51.532Z,10.58
2019-06-26T12:54:46.380Z,10.80
2019-06-26T12:59:55.943Z,10.98
2019-06-26T13:04:38.326Z,10.10
2019-06-26T13:09:35.439Z,9.60
2019-06-26T13:14:31.287Z,10.23
2019-06-26T13:19:26.178Z,10.23
2019-06-26T13:24:21.092Z,10.80
2019-06-26T13:29:15.920Z,10.80
2019-06-26T13:34:10.709Z,11.15
2019-06-26T13:39:06.803Z,10.48
2019-06-26T13:44:01.617Z,10.78
2019-06-26T13:48:56.393Z,11.30
2019-06-26T13:53:51.207Z,12.05
2019-06-26T13:58:45.983Z,10.58
2019-06-26T14:03:40.807Z,11.78
2019-06-26T14:08:35.584Z,11.12
2019-06-26T14:13:30.522Z,11.55
2019-06-26T14:18:25.358Z,11.93
2019-06-26T14:23:20.376Z,10.03
2019-06-26T14:28:15.148Z,12.15
2019-06-26T14:33:09.959Z,11.35
2019-06-26T14:38:04.823Z,10.82
2019-06-26T14:42:59.620Z,11.85
2019-06-26T14:47:54.554Z,11.30
2019-06-26T14:52:49.447Z,12.10
2019-06-26T14:57:44.236Z,10.80
2019-06-26T15:02:39.519Z,11.85
2019-06-26T15:07:34.990Z,11.38
2019-06-26T15:12:30.013Z,11.93
2019-06-26T15:17:24.793Z,11.35
2019-06-26T15:22:19.649Z,11.53
2019-06-26T15:27:14.446Z,12.15
2019-06-26T15:32:09.266Z,12.10
2019-06-26T15:37:04.158Z,11.05
2019-06-26T15:41:59.127Z,11.40
2019-06-26T15:46:53.924Z,11.43
2019-06-26T15:51:48.769Z,10.90
2019-06-26T15:56:43.574Z,10.18
2019-06-26T16:01:38.385Z,10.15
2019-06-26T16:06:33.217Z,9.73
2019-06-26T16:11:28.177Z,9.95
2019-06-26T16:16:23.578Z,9.20
2019-06-26T16:21:18.516Z,9.33
2019-06-26T16:26:20.106Z,8.65
2019-06-26T16:31:14.963Z,8.70
2019-06-26T16:36:10.015Z,8.88
2019-06-26T16:41:04.975Z,8.65
2019-06-26T16:45:59.734Z,8.53
2019-06-26T16:50:54.630Z,8.10
2019-06-26T16:55:49.425Z,8.65
2019-06-26T17:00:44.330Z,8.73
2019-06-26T17:05:39.338Z,7.83
2019-06-26T17:10:34.335Z,8.45
2019-06-26T17:15:29.246Z,9.03
2019-06-26T17:20:24.006Z,8.33
2019-06-26T17:25:18.909Z,8.60
2019-06-26T17:30:14.070Z,8.33
2019-06-26T17:35:09.992Z,7.45
2019-06-26T17:40:05.955Z,7.92
2019-06-26T17:45:00.717Z,7.05
2019-06-26T17:49:55.478Z,6.53
2019-06-26T17:54:50.347Z,6.60
2019-06-26T17:59:45.214Z,6.10
2019-06-26T18:04:39.989Z,5.47
2019-06-26T18:09:34.791Z,5.85
2019-06-26T18:14:29.611Z,4.85
2019-06-26T18:19:24.386Z,5.80
2019-06-26T18:24:19.227Z,5.20
2019-06-26T18:29:14.069Z,5.65
2019-06-26T18:34:08.882Z,6.05
2019-06-26T18:39:05.248Z,5.53
2019-06-26T18:44:00.101Z,6.47
2019-06-26T18:48:54.906Z,5.85
2019-06-26T18:53:53.601Z,6.25
2019-06-26T18:58:46.268Z,6.58
2019-06-26T19:03:41.071Z,6.35
2019-06-26T19:08:36.231Z,6.53
2019-06-26T19:13:31.041Z,6.85
2019-06-26T19:18:25.886Z,6.60
2019-06-26T19:23:20.689Z,6.17
2019-06-26T19:28:15.569Z,7.05
2019-06-26T19:33:10.425Z,6.67
2019-06-26T19:38:05.324Z,6.78
2019-06-26T19:43:00.151Z,6.37
2019-06-26T19:47:55.035Z,7.42
2019-06-26T19:52:49.981Z,6.92
2019-06-26T19:57:44.771Z,7.05
2019-06-26T20:02:39.860Z,6.37
2019-06-26T20:07:34.925Z,7.33
2019-06-26T20:12:29.975Z,7.08
2019-06-26T20:17:24.928Z,5.80
2019-06-26T20:22:20.166Z,5.95
2019-06-26T20:27:14.973Z,6.35
2019-06-26T20:32:09.783Z,6.10
2019-06-26T20:37:04.696Z,6.65
2019-06-26T20:41:59.486Z,6.28
2019-06-26T20:46:54.782Z,5.90
2019-06-26T20:51:49.570Z,5.67
2019-06-26T20:56:44.421Z,5.85
2019-06-26T21:01:39.204Z,5.53
2019-06-26T21:06:34.167Z,5.35
2019-06-26T21:11:29.494Z,5.00
2019-06-26T21:16:24.470Z,5.75
2019-06-26T21:21:19.349Z,5.92
2019-06-26T21:26:14.191Z,5.40
2019-06-26T21:31:08.958Z,4.85
2019-06-26T21:36:04.757Z,5.10
2019-06-26T21:40:59.606Z,4.62
2019-06-26T21:45:54.615Z,4.40
2019-06-26T21:50:49.414Z,4.03
2019-06-26T21:55:44.308Z,4.12
2019-06-26T22:00:40.265Z,4.22
2019-06-26T22:05:35.167Z,4.05
2019-06-26T22:10:29.985Z,4.22
2019-06-26T22:15:24.766Z,4.70
2019-06-26T22:20:19.706Z,4.50
2019-06-26T22:25:14.764Z,4.50
2019-06-26T22:30:09.884Z,4.75
2019-06-26T22:35:05.187Z,4.85
2019-06-26T22:40:00.024Z,5.00
2019-06-26T22:44:54.811Z,4.70
2019-06-26T22:49:49.603Z,4.95
2019-06-26T22:54:44.554Z,5.17
2019-06-26T22:59:39.470Z,5.62
2019-06-26T23:04:34.284Z,5.50
2019-06-26T23:09:29.068Z,5.78
2019-06-26T23:14:23.836Z,6.90
2019-06-26T23:19:18.648Z,6.55
2019-06-26T23:24:13.530Z,6.20
2019-06-26T23:29:08.339Z,6.50
2019-06-26T23:34:03.129Z,6.33
2019-06-26T23:38:58.088Z,7.58
2019-06-26T23:43:52.900Z,7.42
2019-06-26T23:48:47.696Z,6.80
2019-06-26T23:53:42.449Z,8.35
2019-06-26T23:58:37.268Z,7.92
